Ever Lucky — 3FAE4 — position and weather

sailwx.info

Track history (hours):
 
Tides and Currents Weather Stations Pressure Air Temp Water Temp Dewpoint Dewpoint Depression Visibility Wind Speed Wind Dir Waves Ship Positions

Ever Lucky

Last reported at 2017-Oct-21 14:00 UTC. Time now 2017-Oct-22 06:40 UTC.
Position N 08°54' W 085°48'.

Length 335 m; draft 12.3 m.

Type: Ship (hazmat cat C). MMSI: 356407000.

Wind from 190 at 7 knots

Barometer 1011.0 mb
Air temperature 31.0 ° C
Visibility: greater than 10.8 NM
Dewpoint 28.3 ° C
Water temperature 31.0 ° C

Date/timePositionNaut miles runAvg speedWind from/ knotsBaromVisibWave heightAir tempDewpointWater temp
2017-Oct-21 14:00N 08°54' W 085°48'25518.2 190 / 71011.010.8 31.028.331.0
2017-Oct-21 00:00N 10°54' W 089°36'   110 / 121008.010.8 28.025.230.0
2017-Oct-16 14:46N 27°15' W 117°19'518.6
2017-Oct-16 14:30N 27°18' W 117°23'5219.0
2017-Oct-16 11:45N 27°51' W 118°08'13519.6
2017-Oct-16 04:52N 29°18' W 120°05'1319.5
2017-Oct-16 04:12N 29°27' W 120°17'419.5
2017-Oct-16 04:00N 29°29' W 120°20'1019.3
2017-Oct-16 03:30N 29°35' W 120°29'1019.3
2017-Oct-16 03:00N 29°41' W 120°38'1019.5
2017-Oct-16 02:30N 29°48' W 120°46'1419.4
2017-Oct-16 01:48N 29°56' W 120°58'619.3
2017-Oct-16 01:30N 30°00' W 121°03'1019.3
2017-Oct-16 01:00N 30°06' W 121°12'1019.4
2017-Oct-16 00:30N 30°13' W 121°20'1019.1
2017-Oct-16 00:00N 30°19' W 121°28'1019.2
2017-Oct-15 23:30N 30°25' W 121°37'2319.5
2017-Oct-15 22:21N 30°39' W 121°57'719.5
2017-Oct-15 22:00N 30°43' W 122°03'1019.5
2017-Oct-15 21:30N 30°50' W 122°12'1019.4
2017-Oct-15 21:00N 30°56' W 122°21'4220.0
2017-Oct-15 18:55N 31°22' W 122°59'921.5
2017-Oct-15 18:29N 31°28' W 123°07'1021.1
2017-Oct-15 18:00N 31°35' W 123°16'1121.2
2017-Oct-15 17:30N 31°41' W 123°26'2619.9
2017-Oct-15 16:13N 31°56' W 123°50'4219.2
2017-Oct-15 14:00N 32°23' W 124°30'1019.1
2017-Oct-15 13:30N 32°29' W 124°39'919.1
2017-Oct-15 13:00N 32°35' W 124°47'1019.2
2017-Oct-15 12:30N 32°40' W 124°56'1019.7
2017-Oct-15 12:00N 32°47' W 125°06'1019.7
2017-Oct-15 11:30N 32°52' W 125°15'1119.8
2017-Oct-15 10:57N 32°59' W 125°25'919.9
2017-Oct-15 10:30N 33°05' W 125°33'1019.8
2017-Oct-15 10:01N 33°11' W 125°43'1019.7
2017-Oct-15 09:30N 33°16' W 125°53'1019.5
2017-Oct-15 09:00N 33°22' W 126°02'  
Track history (hours):
 
Tides and Currents Weather Stations Pressure Air Temp Water Temp Dewpoint Dewpoint Depression Visibility Wind Speed Wind Dir Waves Ship Positions

Ever Lucky

Last reported at 2017-Oct-21 14:00 UTC. Time now 2017-Oct-22 06:40 UTC.
Position N 08°54' W 085°48'.

Length 335 m; draft 12.3 m.

Type: Ship (hazmat cat C). MMSI: 356407000.

Wind from 190 at 7 knots

Barometer 1011.0 mb
Air temperature 31.0 ° C
Visibility: greater than 10.8 NM
Dewpoint 28.3 ° C
Water temperature 31.0 ° C

Date/timePositionNaut miles runAvg speedWind from/ knotsBaromVisibWave heightAir tempDewpointWater temp
2017-Oct-21 14:00N 08°54' W 085°48'25518.2 190 / 71011.010.8 31.028.331.0
2017-Oct-21 00:00N 10°54' W 089°36'   110 / 121008.010.8 28.025.230.0
2017-Oct-16 14:46N 27°15' W 117°19'518.6
2017-Oct-16 14:30N 27°18' W 117°23'5219.0
2017-Oct-16 11:45N 27°51' W 118°08'13519.6
2017-Oct-16 04:52N 29°18' W 120°05'1319.5
2017-Oct-16 04:12N 29°27' W 120°17'419.5
2017-Oct-16 04:00N 29°29' W 120°20'1019.3
2017-Oct-16 03:30N 29°35' W 120°29'1019.3
2017-Oct-16 03:00N 29°41' W 120°38'1019.5
2017-Oct-16 02:30N 29°48' W 120°46'1419.4
2017-Oct-16 01:48N 29°56' W 120°58'619.3
2017-Oct-16 01:30N 30°00' W 121°03'1019.3
2017-Oct-16 01:00N 30°06' W 121°12'1019.4
2017-Oct-16 00:30N 30°13' W 121°20'1019.1
2017-Oct-16 00:00N 30°19' W 121°28'1019.2
2017-Oct-15 23:30N 30°25' W 121°37'2319.5
2017-Oct-15 22:21N 30°39' W 121°57'719.5
2017-Oct-15 22:00N 30°43' W 122°03'1019.5
2017-Oct-15 21:30N 30°50' W 122°12'1019.4
2017-Oct-15 21:00N 30°56' W 122°21'4220.0
2017-Oct-15 18:55N 31°22' W 122°59'921.5
2017-Oct-15 18:29N 31°28' W 123°07'1021.1
2017-Oct-15 18:00N 31°35' W 123°16'1121.2
2017-Oct-15 17:30N 31°41' W 123°26'2619.9
2017-Oct-15 16:13N 31°56' W 123°50'4219.2
2017-Oct-15 14:00N 32°23' W 124°30'1019.1
2017-Oct-15 13:30N 32°29' W 124°39'919.1
2017-Oct-15 13:00N 32°35' W 124°47'1019.2
2017-Oct-15 12:30N 32°40' W 124°56'1019.7
2017-Oct-15 12:00N 32°47' W 125°06'1019.7
2017-Oct-15 11:30N 32°52' W 125°15'1119.8
2017-Oct-15 10:57N 32°59' W 125°25'919.9
2017-Oct-15 10:30N 33°05' W 125°33'1019.8
2017-Oct-15 10:01N 33°11' W 125°43'1019.7
2017-Oct-15 09:30N 33°16' W 125°53'1019.5
2017-Oct-15 09:00N 33°22' W 126°02'  

Dump ship's entire track history